createdAt,value
2022-09-06T00:00:41.219Z,0.00
2022-09-06T00:01:41.296Z,0.00
2022-09-06T00:02:41.421Z,0.00
2022-09-06T00:03:41.587Z,0.00
2022-09-06T00:04:41.631Z,0.00
2022-09-06T00:05:41.838Z,0.00
2022-09-06T00:06:41.922Z,0.00
2022-09-06T00:07:42.059Z,0.00
2022-09-06T00:08:42.376Z,0.00
2022-09-06T00:09:42.325Z,0.00
2022-09-06T00:10:42.416Z,0.00
2022-09-06T00:11:42.535Z,0.00
2022-09-06T00:12:42.634Z,0.00
2022-09-06T00:13:42.819Z,0.00
2022-09-06T00:14:42.987Z,0.00
2022-09-06T00:15:43.047Z,0.00
2022-09-06T00:16:43.113Z,0.00
2022-09-06T00:17:43.284Z,0.00
2022-09-06T00:18:43.563Z,0.00
2022-09-06T00:19:43.546Z,0.00
2022-09-06T00:20:44.195Z,0.00
2022-09-06T00:21:43.780Z,0.00
2022-09-06T00:22:43.883Z,0.00
2022-09-06T00:23:44.114Z,0.00
2022-09-06T00:24:44.093Z,0.00
2022-09-06T00:25:44.254Z,0.00
2022-09-06T00:26:44.345Z,0.00
2022-09-06T00:27:44.444Z,0.00
2022-09-06T00:28:44.534Z,0.00
2022-09-06T00:29:44.673Z,0.00
2022-09-06T00:30:44.869Z,0.00
2022-09-06T00:31:44.944Z,0.00
2022-09-06T00:32:45.083Z,0.00
2022-09-06T00:33:45.183Z,0.00
2022-09-06T00:34:45.283Z,0.00
2022-09-06T00:35:45.562Z,0.00
2022-09-06T00:36:45.572Z,0.00
2022-09-06T00:37:45.735Z,0.00
2022-09-06T00:38:45.793Z,0.00
2022-09-06T00:39:45.916Z,0.00
2022-09-06T00:40:46.042Z,0.00
2022-09-06T00:41:46.142Z,0.00
2022-09-06T00:42:46.412Z,0.00
2022-09-06T00:43:46.421Z,0.00
2022-09-06T00:44:46.534Z,0.00
2022-09-06T00:45:46.641Z,0.00
2022-09-06T00:46:46.742Z,0.00
2022-09-06T00:47:47.061Z,0.00
2022-09-06T00:48:46.935Z,0.00
2022-09-06T00:49:47.073Z,0.00
2022-09-06T00:50:47.237Z,0.00
2022-09-06T00:51:47.322Z,0.00
2022-09-06T00:52:47.680Z,0.00
2022-09-06T00:53:47.591Z,0.00
2022-09-06T00:54:47.670Z,0.00
2022-09-06T00:55:47.830Z,0.00
2022-09-06T00:56:47.970Z,0.00
2022-09-06T00:57:48.170Z,0.00
2022-09-06T00:58:48.269Z,0.00
2022-09-06T00:59:48.309Z,0.00
2022-09-06T01:00:48.427Z,0.00
2022-09-06T01:01:48.751Z,0.00
2022-09-06T01:02:48.788Z,0.00
2022-09-06T01:03:48.897Z,0.00
2022-09-06T01:04:48.940Z,0.00
2022-09-06T01:05:53.891Z,0.00
2022-09-06T01:06:50.148Z,0.00
2022-09-06T01:07:49.287Z,0.00
2022-09-06T01:08:49.546Z,0.00
2022-09-06T01:09:49.536Z,0.00
2022-09-06T01:10:49.704Z,0.00
2022-09-06T01:11:49.777Z,0.00
2022-09-06T01:12:49.923Z,0.00
2022-09-06T01:13:50.239Z,0.00
2022-09-06T01:14:50.307Z,0.00
2022-09-06T01:15:50.362Z,0.00
2022-09-06T01:16:50.438Z,0.00
2022-09-06T01:17:50.584Z,0.00
2022-09-06T01:18:50.665Z,0.00
2022-09-06T01:19:50.976Z,0.00
2022-09-06T01:20:50.958Z,0.00
2022-09-06T01:21:51.065Z,0.00
2022-09-06T01:22:51.173Z,0.00
2022-09-06T01:23:51.334Z,0.00
2022-09-06T01:24:51.516Z,0.00
2022-09-06T01:25:51.563Z,0.00
2022-09-06T01:26:51.654Z,0.00
2022-09-06T01:27:51.795Z,0.00
2022-09-06T01:28:51.932Z,0.00
2022-09-06T01:29:52.185Z,0.00
2022-09-06T01:30:52.242Z,0.00
2022-09-06T01:31:52.354Z,0.00
2022-09-06T01:32:52.443Z,0.00
2022-09-06T01:33:52.593Z,0.00
2022-09-06T01:34:52.813Z,0.00
2022-09-06T01:35:52.865Z,0.00
2022-09-06T01:37:08.861Z,0.00
2022-09-06T01:37:54.063Z,0.00
2022-09-06T01:38:53.183Z,0.00
2022-09-06T01:39:53.504Z,0.00
2022-09-06T01:40:53.472Z,0.00
2022-09-06T01:41:53.563Z,0.00
2022-09-06T01:42:53.663Z,0.00
2022-09-06T01:43:53.845Z,0.00
2022-09-06T01:44:54.090Z,0.00
2022-09-06T01:45:54.189Z,0.00
2022-09-06T01:46:54.182Z,0.00
2022-09-06T01:47:54.321Z,0.00
2022-09-06T01:48:54.471Z,0.00
2022-09-06T01:49:54.812Z,0.00
2022-09-06T01:50:54.710Z,0.00
2022-09-06T01:51:54.811Z,0.00
2022-09-06T01:52:54.930Z,0.00
2022-09-06T01:53:55.030Z,0.00
2022-09-06T01:54:55.263Z,0.00
2022-09-06T01:55:55.361Z,0.00
2022-09-06T01:56:55.409Z,0.00
2022-09-06T01:57:55.505Z,0.00
2022-09-06T01:58:55.651Z,0.00
2022-09-06T01:59:55.938Z,0.00
2022-09-06T02:00:55.928Z,0.00
2022-09-06T02:01:56.061Z,0.00
2022-09-06T02:02:56.221Z,0.00
2022-09-06T02:03:56.246Z,0.00
2022-09-06T02:04:56.489Z,0.00
2022-09-06T02:05:56.501Z,0.00
2022-09-06T02:06:56.717Z,0.00
2022-09-06T02:07:56.716Z,0.00
2022-09-06T02:08:56.857Z,0.00
2022-09-06T02:09:56.958Z,0.00
2022-09-06T02:10:57.075Z,0.00
2022-09-06T02:11:57.338Z,0.00
2022-09-06T02:12:57.270Z,0.00
2022-09-06T02:13:57.427Z,0.00
2022-09-06T02:14:57.505Z,0.00
2022-09-06T02:15:57.657Z,0.00
2022-09-06T02:16:57.937Z,0.00
2022-09-06T02:17:57.966Z,0.00
2022-09-06T02:18:58.016Z,0.00
2022-09-06T02:19:58.154Z,0.00
2022-09-06T02:20:58.316Z,0.00
2022-09-06T02:21:58.636Z,0.00
2022-09-06T02:22:58.707Z,0.00
2022-09-06T02:23:58.667Z,0.00
2022-09-06T02:24:58.835Z,0.00
2022-09-06T02:25:58.947Z,0.00
2022-09-06T02:26:59.114Z,0.00
2022-09-06T02:27:59.175Z,0.00
2022-09-06T02:28:59.275Z,0.00
2022-09-06T02:29:59.575Z,0.00
2022-09-06T02:30:59.531Z,0.00
2022-09-06T02:31:59.594Z,0.00
2022-09-06T02:32:59.743Z,0.00
2022-09-06T02:33:59.844Z,0.00
2022-09-06T02:34:59.963Z,0.00
2022-09-06T02:36:00.194Z,0.00
2022-09-06T02:37:00.184Z,0.00
2022-09-06T02:38:00.282Z,0.00
2022-09-06T02:39:00.433Z,0.00
2022-09-06T02:40:00.661Z,0.00
2022-09-06T02:41:00.644Z,0.00
2022-09-06T02:42:00.791Z,0.00
2022-09-06T02:43:00.943Z,0.00
2022-09-06T02:44:01.022Z,0.00
2022-09-06T02:45:01.242Z,0.00
2022-09-06T02:46:01.334Z,0.00
2022-09-06T02:47:01.411Z,0.00
2022-09-06T02:48:01.554Z,0.00
2022-09-06T02:49:01.732Z,0.00
2022-09-06T02:50:01.921Z,0.00
2022-09-06T02:51:01.982Z,0.00
2022-09-06T02:52:02.068Z,0.00
2022-09-06T02:53:02.200Z,0.00
2022-09-06T02:54:02.340Z,0.00
2022-09-06T02:55:02.544Z,0.00
2022-09-06T02:56:02.651Z,0.00
2022-09-06T02:57:02.749Z,0.00
2022-09-06T02:58:02.859Z,0.00
2022-09-06T02:59:02.958Z,0.00
2022-09-06T03:00:03.128Z,0.00
2022-09-06T03:01:03.288Z,0.00
2022-09-06T03:02:03.404Z,0.00
2022-09-06T03:03:03.508Z,0.00
2022-09-06T03:04:03.658Z,0.00
2022-09-06T03:05:03.958Z,0.00
2022-09-06T03:06:03.958Z,0.00
2022-09-06T03:07:04.068Z,0.00
2022-09-06T03:08:04.187Z,0.00
2022-09-06T03:09:04.328Z,0.00
2022-09-06T03:10:04.697Z,0.00
2022-09-06T03:11:04.597Z,0.00
2022-09-06T03:12:04.668Z,0.00
2022-09-06T03:13:04.826Z,0.00
2022-09-06T03:14:04.957Z,0.00
2022-09-06T03:15:05.156Z,0.00
2022-09-06T03:16:05.247Z,0.00
2022-09-06T03:17:05.391Z,0.00
2022-09-06T03:18:05.467Z,0.00
2022-09-06T03:19:05.610Z,0.00
2022-09-06T03:20:05.836Z,0.00
2022-09-06T03:21:05.886Z,0.00
2022-09-06T03:22:05.977Z,0.00
2022-09-06T03:23:06.095Z,0.00
2022-09-06T03:24:06.224Z,0.00
2022-09-06T03:25:06.405Z,0.00
2022-09-06T03:26:06.506Z,0.00
2022-09-06T03:27:06.603Z,0.00
2022-09-06T03:28:06.733Z,0.00
2022-09-06T03:29:06.894Z,0.00
2022-09-06T03:30:07.064Z,0.00
2022-09-06T03:31:07.177Z,0.00
2022-09-06T03:32:07.214Z,0.00
2022-09-06T03:33:07.382Z,0.00
2022-09-06T03:34:10.960Z,0.00
2022-09-06T03:35:07.644Z,0.00
2022-09-06T03:36:07.752Z,0.00
2022-09-06T03:37:07.837Z,0.00
2022-09-06T03:38:07.972Z,0.00
2022-09-06T03:39:08.114Z,0.00
2022-09-06T03:40:08.361Z,0.00
2022-09-06T03:41:08.352Z,0.00
2022-09-06T03:42:08.451Z,0.00
2022-09-06T03:43:08.582Z,0.00
2022-09-06T03:44:08.720Z,0.00
2022-09-06T03:45:08.921Z,0.00
2022-09-06T03:46:09.031Z,0.00
2022-09-06T03:47:09.050Z,0.00
2022-09-06T03:48:09.221Z,0.00
2022-09-06T03:49:09.331Z,0.00
2022-09-06T03:50:09.520Z,0.00
2022-09-06T03:51:09.553Z,0.00
2022-09-06T03:52:09.721Z,0.00
2022-09-06T03:53:09.819Z,0.00
2022-09-06T03:54:10.009Z,0.00
2022-09-06T03:55:10.141Z,0.00
2022-09-06T03:56:10.277Z,0.00
2022-09-06T03:57:10.368Z,0.00
2022-09-06T03:58:10.515Z,0.00
2022-09-06T03:59:10.688Z,0.00
2022-09-06T04:00:10.809Z,0.00
2022-09-06T04:01:10.994Z,0.00
2022-09-06T04:02:11.046Z,0.00
2022-09-06T04:03:11.138Z,0.00
2022-09-06T04:04:11.245Z,0.00
2022-09-06T04:05:11.557Z,0.00
2022-09-06T04:06:11.457Z,0.00
2022-09-06T04:07:11.527Z,0.00
2022-09-06T04:08:11.656Z,0.00
2022-09-06T04:09:11.808Z,0.00
2022-09-06T04:10:11.996Z,0.00
2022-09-06T04:11:12.056Z,0.00
2022-09-06T04:12:12.159Z,0.00
2022-09-06T04:13:12.295Z,0.00
2022-09-06T04:14:12.446Z,0.00
2022-09-06T04:15:12.599Z,0.00
2022-09-06T04:16:12.732Z,0.00
2022-09-06T04:17:12.807Z,0.00
2022-09-06T04:18:12.905Z,0.00
2022-09-06T04:19:13.013Z,0.00
2022-09-06T04:20:13.185Z,0.00
2022-09-06T04:21:13.312Z,0.00
2022-09-06T04:22:13.375Z,0.00
2022-09-06T04:23:13.508Z,0.00
2022-09-06T04:24:13.565Z,0.00
2022-09-06T04:25:13.901Z,0.00
2022-09-06T04:26:13.826Z,0.00
2022-09-06T04:27:13.924Z,0.00
2022-09-06T04:28:14.073Z,0.00
2022-09-06T04:29:14.181Z,0.00
2022-09-06T04:30:14.476Z,0.00
2022-09-06T04:31:14.471Z,0.00
2022-09-06T04:32:14.552Z,0.00
2022-09-06T04:33:14.746Z,0.00
2022-09-06T04:34:14.844Z,0.00
2022-09-06T04:35:15.084Z,0.00
2022-09-06T04:36:15.112Z,0.00
2022-09-06T04:37:15.242Z,0.00
2022-09-06T04:38:15.380Z,0.00
2022-09-06T04:39:15.534Z,0.00
2022-09-06T04:40:15.701Z,0.00
2022-09-06T04:41:15.741Z,0.00
2022-09-06T04:42:15.860Z,0.00
2022-09-06T04:43:16.020Z,0.00
2022-09-06T04:44:16.070Z,0.00
2022-09-06T04:45:16.207Z,0.00
2022-09-06T04:46:16.485Z,0.00
2022-09-06T04:47:16.470Z,0.00
2022-09-06T04:48:16.729Z,0.00
2022-09-06T04:49:16.729Z,0.00
2022-09-06T04:50:16.882Z,0.00
2022-09-06T04:51:16.969Z,0.00
2022-09-06T04:52:17.122Z,0.00
2022-09-06T04:53:17.351Z,5.62
2022-09-06T04:54:17.354Z,5.62
2022-09-06T04:55:17.458Z,5.62
2022-09-06T04:56:17.598Z,5.62
2022-09-06T04:57:17.766Z,5.62
2022-09-06T04:58:17.928Z,5.62
2022-09-06T04:59:17.990Z,5.62
2022-09-06T05:00:18.108Z,11.25
2022-09-06T05:01:18.319Z,11.25
2022-09-06T05:02:18.415Z,11.25
2022-09-06T05:03:18.557Z,11.25
2022-09-06T05:04:18.646Z,11.25
2022-09-06T05:05:18.796Z,16.88
2022-09-06T05:06:18.923Z,16.88
2022-09-06T05:07:19.078Z,16.88
2022-09-06T05:08:19.431Z,16.88
2022-09-06T05:09:19.316Z,22.50
2022-09-06T05:10:19.421Z,22.50
2022-09-06T05:11:19.575Z,22.50
2022-09-06T05:12:19.665Z,22.50
2022-09-06T05:13:19.886Z,22.50
2022-09-06T05:14:19.954Z,28.12
2022-09-06T05:15:20.074Z,28.12
2022-09-06T05:16:20.275Z,28.12
2022-09-06T05:17:20.313Z,28.12
2022-09-06T05:18:20.571Z,33.75
2022-09-06T05:19:20.591Z,28.12
2022-09-06T05:20:20.723Z,33.75
2022-09-06T05:21:20.883Z,33.75
2022-09-06T05:22:21.025Z,33.75
2022-09-06T05:23:21.123Z,39.38
2022-09-06T05:24:21.239Z,39.38
2022-09-06T05:25:21.343Z,39.38
2022-09-06T05:26:21.442Z,45.00
2022-09-06T05:27:21.814Z,45.00
2022-09-06T05:28:21.850Z,45.00
2022-09-06T05:29:21.822Z,45.00
2022-09-06T05:30:21.942Z,50.62
2022-09-06T05:31:22.085Z,50.62
2022-09-06T05:32:22.191Z,50.62
2022-09-06T05:33:22.561Z,56.25
2022-09-06T05:34:22.483Z,56.25
2022-09-06T05:35:22.611Z,56.25
2022-09-06T05:36:22.770Z,56.25
2022-09-06T05:37:22.850Z,61.88
2022-09-06T05:38:23.145Z,61.88
2022-09-06T05:39:23.322Z,67.50
2022-09-06T05:40:23.239Z,67.50
2022-09-06T05:41:23.330Z,73.12
2022-09-06T05:42:23.448Z,78.75
2022-09-06T05:43:23.569Z,78.75
2022-09-06T05:44:23.820Z,90.00
2022-09-06T05:45:23.847Z,95.62
2022-09-06T05:46:23.924Z,106.88
2022-09-06T05:47:24.069Z,106.88
2022-09-06T05:48:24.182Z,112.50
2022-09-06T05:49:24.390Z,112.50
2022-09-06T05:50:24.457Z,118.12
2022-09-06T05:51:24.587Z,123.75
2022-09-06T05:52:24.690Z,129.38
2022-09-06T05:53:24.777Z,135.00
2022-09-06T05:54:25.031Z,140.62
2022-09-06T05:55:25.051Z,140.62
2022-09-06T05:56:25.199Z,146.25
2022-09-06T05:57:25.528Z,146.25
2022-09-06T05:58:25.493Z,146.25
2022-09-06T05:59:25.617Z,151.88
2022-09-06T06:00:25.766Z,157.50
2022-09-06T06:01:25.938Z,157.50
2022-09-06T06:02:26.202Z,157.50
2022-09-06T06:03:26.291Z,163.12
2022-09-06T06:04:26.267Z,163.12
2022-09-06T06:05:26.406Z,163.12
2022-09-06T06:06:26.505Z,168.75
2022-09-06T06:07:26.645Z,168.75
2022-09-06T06:08:27.041Z,174.38
2022-09-06T06:09:26.905Z,174.38
2022-09-06T06:10:27.033Z,180.00
2022-09-06T06:11:27.196Z,180.00
2022-09-06T06:12:27.296Z,185.62
2022-09-06T06:13:27.528Z,185.62
2022-09-06T06:14:27.569Z,185.62
2022-09-06T06:15:27.704Z,185.62
2022-09-06T06:16:27.908Z,191.25
2022-09-06T06:17:27.982Z,191.25
2022-09-06T06:18:28.295Z,191.25
2022-09-06T06:19:28.344Z,196.88
2022-09-06T06:20:28.417Z,196.88
2022-09-06T06:21:28.535Z,202.50
2022-09-06T06:22:28.626Z,202.50
2022-09-06T06:23:28.923Z,208.12
2022-09-06T06:24:28.893Z,213.75
2022-09-06T06:25:29.042Z,213.75
2022-09-06T06:26:29.182Z,219.38
2022-09-06T06:27:29.331Z,219.38
2022-09-06T06:28:29.503Z,219.38
2022-09-06T06:29:29.552Z,225.00
2022-09-06T06:30:29.677Z,225.00
2022-09-06T06:31:29.888Z,230.62
2022-09-06T06:32:29.942Z,230.62
2022-09-06T06:33:30.162Z,236.25
2022-09-06T06:34:30.331Z,236.25
2022-09-06T06:35:30.313Z,241.88
2022-09-06T06:36:30.469Z,241.88
2022-09-06T06:37:30.562Z,247.50
2022-09-06T06:38:30.821Z,247.50
2022-09-06T06:39:31.035Z,253.12
2022-09-06T06:40:30.921Z,258.75
2022-09-06T06:41:31.059Z,258.75
2022-09-06T06:42:31.191Z,264.38
2022-09-06T06:43:31.346Z,264.38
2022-09-06T06:44:31.628Z,264.38
2022-09-06T06:45:31.610Z,270.00
2022-09-06T06:46:31.681Z,270.00
2022-09-06T06:47:31.831Z,270.00
2022-09-06T06:48:31.989Z,270.00
2022-09-06T06:49:32.170Z,281.25
2022-09-06T06:50:32.367Z,275.62
2022-09-06T06:51:32.409Z,281.25
2022-09-06T06:52:32.507Z,286.88
2022-09-06T06:53:32.659Z,286.88
2022-09-06T06:54:32.839Z,286.88
2022-09-06T06:55:33.020Z,292.50
2022-09-06T06:56:33.038Z,298.12
2022-09-06T06:57:33.280Z,303.75
2022-09-06T06:58:33.248Z,303.75
2022-09-06T06:59:33.389Z,309.38
2022-09-06T07:00:33.555Z,309.38
2022-09-06T07:01:33.806Z,303.75
2022-09-06T07:02:33.840Z,303.75
2022-09-06T07:03:33.919Z,303.75
2022-09-06T07:04:34.048Z,303.75
2022-09-06T07:07:37.880Z,303.75
2022-09-06T07:08:34.605Z,309.38
2022-09-06T07:10:35.867Z,315.00
2022-09-06T07:11:35.160Z,320.62
2022-09-06T07:12:35.079Z,320.62
2022-09-06T07:13:35.207Z,320.62
2022-09-06T07:14:35.367Z,326.25
2022-09-06T07:15:35.527Z,326.25
2022-09-06T07:16:35.980Z,331.88
2022-09-06T07:17:35.749Z,337.50
2022-09-06T07:18:35.827Z,337.50
2022-09-06T07:21:37.693Z,343.12
2022-09-06T07:22:36.329Z,360.00
2022-09-06T07:24:37.647Z,348.75
2022-09-06T07:25:36.669Z,354.38
2022-09-06T07:26:37.368Z,354.38
2022-09-06T07:27:52.363Z,354.38
2022-09-06T07:28:38.188Z,354.38
2022-09-06T07:29:37.167Z,354.38
2022-09-06T07:30:37.349Z,354.38
2022-09-06T07:32:38.576Z,360.00
2022-09-06T07:33:37.836Z,360.00
2022-09-06T07:34:37.775Z,365.62
2022-09-06T07:35:37.908Z,371.25
2022-09-06T07:36:38.004Z,371.25
2022-09-06T07:37:38.112Z,371.25
2022-09-06T07:38:38.799Z,371.25
2022-09-06T07:39:38.354Z,376.88
2022-09-06T07:40:38.425Z,376.88
2022-09-06T07:41:38.545Z,382.50
2022-09-06T07:42:38.689Z,388.12
2022-09-06T07:43:38.925Z,388.12
2022-09-06T07:44:39.109Z,393.75
2022-09-06T07:45:39.045Z,405.00
2022-09-06T07:46:39.209Z,399.38
2022-09-06T07:48:40.601Z,405.00
2022-09-06T07:49:40.219Z,405.00
2022-09-06T07:50:48.000Z,405.00
2022-09-06T07:51:40.795Z,410.62
2022-09-06T07:53:41.084Z,416.25
2022-09-06T07:54:40.295Z,427.50
2022-09-06T07:55:40.405Z,427.50
2022-09-06T07:56:40.397Z,433.12
2022-09-06T07:57:40.485Z,438.75
2022-09-06T07:58:40.914Z,444.38
2022-09-06T07:59:42.970Z,461.25
2022-09-06T08:00:40.985Z,466.88
2022-09-06T08:01:40.988Z,472.50
2022-09-06T08:02:41.094Z,489.38
2022-09-06T08:03:41.316Z,500.62
2022-09-06T08:04:41.442Z,523.12
2022-09-06T08:07:42.668Z,545.62
2022-09-06T08:08:57.546Z,551.25
2022-09-06T08:09:42.853Z,556.88
2022-09-06T08:10:41.984Z,585.00
2022-09-06T08:11:42.077Z,528.75
2022-09-06T08:12:42.235Z,585.00
2022-09-06T08:13:42.525Z,590.62
2022-09-06T08:14:42.463Z,601.88
2022-09-06T08:15:42.617Z,607.50
2022-09-06T08:16:42.781Z,618.75
2022-09-06T08:17:42.873Z,635.62
2022-09-06T08:18:43.472Z,658.12
2022-09-06T08:19:43.094Z,663.75
2022-09-06T08:20:43.253Z,663.75
2022-09-06T08:21:43.362Z,669.38
2022-09-06T08:22:43.453Z,680.62
2022-09-06T08:23:43.654Z,686.25
2022-09-06T08:24:43.773Z,697.50
2022-09-06T08:25:43.763Z,697.50
2022-09-06T08:26:43.913Z,663.75
2022-09-06T08:27:44.052Z,731.25
2022-09-06T08:28:44.173Z,736.88
2022-09-06T08:29:44.446Z,753.75
2022-09-06T08:30:44.383Z,759.38
2022-09-06T08:31:44.577Z,759.38
2022-09-06T08:32:44.622Z,793.12
2022-09-06T08:33:44.762Z,793.12
2022-09-06T08:34:44.992Z,804.38
2022-09-06T08:35:45.042Z,815.62
2022-09-06T08:36:45.142Z,849.38
2022-09-06T08:37:45.245Z,877.50
2022-09-06T08:38:45.393Z,911.25
2022-09-06T08:39:45.612Z,911.25
2022-09-06T08:40:45.613Z,911.25
2022-09-06T08:41:45.852Z,624.38
2022-09-06T08:42:45.841Z,956.25
2022-09-06T08:43:46.239Z,883.12
2022-09-06T08:45:01.533Z,990.00
2022-09-06T08:45:47.232Z,939.38
2022-09-06T08:46:46.474Z,731.25
2022-09-06T08:47:46.541Z,1130.62
2022-09-06T08:48:46.621Z,1130.62
2022-09-06T08:49:46.931Z,326.25
2022-09-06T08:50:46.929Z,331.88
2022-09-06T08:51:47.040Z,1293.75
2022-09-06T08:53:06.102Z,1395.00
2022-09-06T08:53:48.299Z,410.62
2022-09-06T08:54:48.470Z,1721.25
2022-09-06T08:55:47.582Z,2126.25
2022-09-06T08:56:47.712Z,2379.38
2022-09-06T08:57:47.801Z,2683.12
2022-09-06T08:58:47.952Z,590.62
2022-09-06T08:59:48.169Z,495.00
2022-09-06T09:00:48.335Z,630.00
2022-09-06T09:01:48.445Z,2075.62
2022-09-06T09:02:48.458Z,4078.12
2022-09-06T09:03:48.559Z,4044.38
2022-09-06T09:04:48.724Z,3791.25
2022-09-06T09:05:48.779Z,4016.25
2022-09-06T09:06:48.940Z,4162.50
2022-09-06T09:07:49.081Z,4348.12
2022-09-06T09:08:49.168Z,4798.12
2022-09-06T09:09:49.330Z,4905.00
2022-09-06T09:10:49.431Z,4938.75
2022-09-06T09:11:49.584Z,568.12
2022-09-06T09:12:49.703Z,703.12
2022-09-06T09:13:49.828Z,1490.62
2022-09-06T09:14:49.959Z,1800.00
2022-09-06T09:15:50.104Z,945.00
2022-09-06T09:16:50.268Z,1181.25
2022-09-06T09:17:50.409Z,3684.38
2022-09-06T09:18:50.459Z,3802.50
2022-09-06T09:19:50.572Z,843.75
2022-09-06T09:20:50.679Z,1440.00
2022-09-06T09:21:50.879Z,4944.38
2022-09-06T09:22:50.938Z,6384.38
2022-09-06T09:23:51.039Z,6643.12
2022-09-06T09:24:51.139Z,6418.12
2022-09-06T09:25:51.226Z,652.50
2022-09-06T09:26:51.549Z,6519.38
2022-09-06T09:27:51.527Z,6958.12
2022-09-06T09:28:51.642Z,7396.88
2022-09-06T09:30:52.848Z,7318.12
2022-09-06T09:31:53.610Z,7076.25
2022-09-06T09:32:52.186Z,6586.88
2022-09-06T09:33:52.247Z,1327.50
2022-09-06T09:34:52.416Z,5523.75
2022-09-06T09:35:52.526Z,5349.38
2022-09-06T09:37:58.108Z,5163.75
2022-09-06T09:38:53.904Z,5062.50
2022-09-06T09:39:53.088Z,4831.88
2022-09-06T09:40:53.172Z,4550.62
2022-09-06T09:41:53.306Z,4404.38
2022-09-06T09:42:53.447Z,4320.00
2022-09-06T09:43:53.675Z,4095.00
2022-09-06T09:44:53.747Z,4055.62
2022-09-06T09:45:53.846Z,3948.75
2022-09-06T09:46:54.009Z,4033.12
2022-09-06T09:47:54.246Z,4134.38
2022-09-06T09:48:54.285Z,4201.88
2022-09-06T09:49:54.383Z,4235.62
2022-09-06T09:50:54.473Z,4066.88
2022-09-06T09:51:54.593Z,4145.62
2022-09-06T09:52:54.674Z,4095.00
2022-09-06T09:53:54.854Z,3825.00
2022-09-06T09:54:54.955Z,3594.38
2022-09-06T09:55:55.047Z,3678.75
2022-09-06T09:56:55.192Z,3611.25
2022-09-06T09:57:55.333Z,3802.50
2022-09-06T09:58:55.664Z,4353.75
2022-09-06T09:59:55.593Z,4241.25
2022-09-06T10:00:55.801Z,4179.38
2022-09-06T10:01:55.879Z,4078.12
2022-09-06T10:02:56.084Z,3723.75
2022-09-06T10:04:57.253Z,3020.62
2022-09-06T10:06:02.255Z,2778.75
2022-09-06T10:07:12.848Z,2829.38
2022-09-06T10:07:57.645Z,3116.25
2022-09-06T10:08:56.733Z,3408.75
2022-09-06T10:09:56.873Z,3538.12
2022-09-06T10:10:57.140Z,3532.50
2022-09-06T10:11:57.121Z,3571.88
2022-09-06T10:12:57.282Z,3661.88
2022-09-06T10:13:57.389Z,3431.25
2022-09-06T10:14:57.541Z,3335.62
2022-09-06T10:15:57.746Z,3335.62
2022-09-06T10:16:57.772Z,3037.50
2022-09-06T10:17:57.925Z,2840.62
2022-09-06T10:18:58.048Z,2863.12
2022-09-06T10:19:58.191Z,2941.88
2022-09-06T10:20:58.490Z,2958.75
2022-09-06T10:21:58.451Z,2863.12
2022-09-06T10:22:58.537Z,3048.75
2022-09-06T10:24:59.801Z,3093.75
2022-09-06T10:25:59.078Z,3054.38
2022-09-06T10:26:59.099Z,3065.62
2022-09-06T10:28:11.015Z,3105.00
2022-09-06T10:29:00.489Z,3150.00
2022-09-06T10:29:59.409Z,3048.75
2022-09-06T10:30:59.629Z,2953.12
2022-09-06T10:31:59.676Z,2885.62
2022-09-06T10:32:59.789Z,2767.50
2022-09-06T10:33:59.947Z,2795.62
2022-09-06T10:35:00.032Z,2863.12
2022-09-06T10:36:00.167Z,2812.50
2022-09-06T10:37:00.317Z,2778.75
2022-09-06T10:38:00.497Z,2773.12
2022-09-06T10:39:03.883Z,2891.25
2022-09-06T10:40:00.857Z,3076.88
2022-09-06T10:41:00.839Z,3082.50
2022-09-06T10:42:00.936Z,3121.88
2022-09-06T10:43:01.046Z,3082.50
2022-09-06T10:44:01.254Z,2874.38
2022-09-06T10:45:01.329Z,2801.25
2022-09-06T10:46:01.506Z,2700.00
2022-09-06T10:47:01.571Z,2756.25
2022-09-06T10:48:01.654Z,2756.25
2022-09-06T10:49:01.795Z,2835.00
2022-09-06T10:50:01.995Z,2925.00
2022-09-06T10:51:02.164Z,2975.62
2022-09-06T10:52:02.155Z,3009.38
2022-09-06T10:53:02.304Z,2998.12
2022-09-06T10:54:02.414Z,3060.00
2022-09-06T10:55:02.733Z,3003.75
2022-09-06T10:56:02.664Z,3060.00
2022-09-06T10:57:02.860Z,3060.00
2022-09-06T10:58:19.225Z,2936.25
2022-09-06T11:00:04.293Z,3009.38
2022-09-06T11:01:03.284Z,2947.50
2022-09-06T11:02:03.622Z,2970.00
2022-09-06T11:04:08.058Z,3060.00
2022-09-06T11:06:05.006Z,3296.25
2022-09-06T11:07:04.080Z,3555.00
2022-09-06T11:09:05.352Z,3886.88
2022-09-06T11:10:04.501Z,3611.25
2022-09-06T11:11:04.761Z,3358.12
2022-09-06T11:12:04.750Z,3009.38
2022-09-06T11:13:04.861Z,3037.50
2022-09-06T11:14:05.743Z,3082.50
2022-09-06T11:15:05.080Z,2947.50
2022-09-06T11:16:05.317Z,3549.38
2022-09-06T11:17:05.350Z,3532.50
2022-09-06T11:18:05.437Z,4145.62
2022-09-06T11:19:05.574Z,4230.00
2022-09-06T11:20:05.730Z,4365.00
2022-09-06T11:21:05.949Z,4123.12
2022-09-06T11:22:06.155Z,3796.88
2022-09-06T11:23:06.164Z,3785.62
2022-09-06T11:24:06.229Z,3915.00
2022-09-06T11:25:06.367Z,3510.00
2022-09-06T11:26:06.569Z,3363.75
2022-09-06T11:27:06.751Z,3487.50
2022-09-06T11:28:06.758Z,3195.00
2022-09-06T11:29:06.857Z,2998.12
2022-09-06T11:30:06.990Z,2930.62
2022-09-06T11:31:07.524Z,2092.50
2022-09-06T11:32:22.616Z,1732.50
2022-09-06T11:33:08.428Z,1501.88
2022-09-06T11:34:07.557Z,1755.00
2022-09-06T11:35:07.716Z,1805.62
2022-09-06T11:36:07.799Z,1833.75
2022-09-06T11:37:08.086Z,2064.38
2022-09-06T11:38:08.078Z,1333.12
2022-09-06T11:39:08.227Z,1777.50
2022-09-06T11:41:12.058Z,1164.38
2022-09-06T11:42:08.799Z,1113.75
2022-09-06T11:43:08.778Z,1400.62
2022-09-06T11:44:08.938Z,1231.88
2022-09-06T11:45:09.037Z,1738.12
2022-09-06T11:46:09.249Z,1788.75
2022-09-06T11:47:09.477Z,1485.00
2022-09-06T11:48:09.446Z,1181.25
2022-09-06T11:49:09.698Z,1153.12
2022-09-06T11:50:09.735Z,1175.62
2022-09-06T11:51:09.868Z,1282.50
2022-09-06T11:52:10.037Z,1670.62
2022-09-06T11:53:10.137Z,2086.88
2022-09-06T11:54:10.427Z,1946.25
2022-09-06T11:55:10.375Z,1681.88
2022-09-06T11:56:10.457Z,1895.62
2022-09-06T11:57:10.604Z,2131.88
2022-09-06T11:58:10.716Z,2396.25
2022-09-06T11:59:10.868Z,2418.75
2022-09-06T12:00:10.993Z,2401.88
2022-09-06T12:01:11.017Z,2435.62
2022-09-06T12:02:11.197Z,2441.25
2022-09-06T12:04:12.547Z,2266.88
2022-09-06T12:05:11.524Z,2041.88
2022-09-06T12:06:11.667Z,1901.25
2022-09-06T12:07:11.785Z,1935.00
2022-09-06T12:08:11.865Z,1963.12
2022-09-06T12:09:12.159Z,2081.25
2022-09-06T12:10:12.136Z,1389.38
2022-09-06T12:11:12.310Z,1805.62
2022-09-06T12:12:16.828Z,1890.00
2022-09-06T12:13:12.526Z,1642.50
2022-09-06T12:14:12.845Z,1636.88
2022-09-06T12:15:12.945Z,1788.75
2022-09-06T12:16:13.007Z,1721.25
2022-09-06T12:17:13.041Z,1417.50
2022-09-06T12:18:13.195Z,1085.62
2022-09-06T12:19:13.306Z,1012.50
2022-09-06T12:20:13.515Z,933.75
2022-09-06T12:21:13.546Z,973.12
2022-09-06T12:22:13.705Z,933.75
2022-09-06T12:23:13.805Z,736.88
2022-09-06T12:24:13.895Z,489.38
2022-09-06T12:25:14.083Z,517.50
2022-09-06T12:26:14.435Z,427.50
2022-09-06T12:27:14.295Z,433.12
2022-09-06T12:28:14.395Z,438.75
2022-09-06T12:29:14.504Z,528.75
2022-09-06T12:30:14.639Z,753.75
2022-09-06T12:31:18.310Z,759.38
2022-09-06T12:32:14.855Z,528.75
2022-09-06T12:33:14.957Z,405.00
2022-09-06T12:34:15.054Z,461.25
2022-09-06T12:36:16.351Z,1012.50
2022-09-06T12:37:15.585Z,945.00
2022-09-06T12:38:15.525Z,720.00
2022-09-06T12:39:15.656Z,731.25
2022-09-06T12:40:15.756Z,646.88
2022-09-06T12:41:15.916Z,618.75
2022-09-06T12:42:16.174Z,579.38
2022-09-06T12:43:16.161Z,680.62
2022-09-06T12:44:16.304Z,703.12
2022-09-06T12:45:16.395Z,579.38
2022-09-06T12:46:16.619Z,523.12
2022-09-06T12:47:16.722Z,450.00
2022-09-06T12:48:16.933Z,360.00
2022-09-06T12:49:16.863Z,343.12
2022-09-06T12:50:17.022Z,371.25
2022-09-06T12:51:17.123Z,579.38
2022-09-06T12:52:17.223Z,579.38
2022-09-06T12:53:20.436Z,360.00
2022-09-06T12:54:18.474Z,320.62
2022-09-06T12:55:17.564Z,320.62
2022-09-06T12:56:17.704Z,315.00
2022-09-06T12:57:17.823Z,320.62
2022-09-06T12:58:17.946Z,326.25
2022-09-06T12:59:18.173Z,326.25
2022-09-06T13:00:18.154Z,331.88
2022-09-06T13:01:18.450Z,337.50
2022-09-06T13:02:18.506Z,315.00
2022-09-06T13:03:18.526Z,309.38
2022-09-06T13:04:18.652Z,303.75
2022-09-06T13:05:18.753Z,303.75
2022-09-06T13:06:22.129Z,303.75